createdAt,value
2023-05-23T00:01:18.554Z,16.03
2023-05-23T00:03:47.573Z,17.00
2023-05-23T00:06:15.830Z,12.07
2023-05-23T00:08:44.054Z,14.07
2023-05-23T00:11:13.505Z,13.40
2023-05-23T00:13:42.321Z,12.30
2023-05-23T00:16:10.602Z,14.33
2023-05-23T00:18:38.585Z,11.40
2023-05-23T00:21:06.936Z,12.20
2023-05-23T00:23:35.264Z,12.73
2023-05-23T00:26:04.154Z,12.73
2023-05-23T00:28:32.264Z,11.83
2023-05-23T00:31:00.352Z,11.80
2023-05-23T00:33:29.833Z,14.97
2023-05-23T00:35:57.957Z,17.83
2023-05-23T00:38:26.890Z,14.73
2023-05-23T00:40:54.618Z,13.57
2023-05-23T00:43:23.001Z,14.27
2023-05-23T00:45:50.982Z,14.13
2023-05-23T00:48:18.861Z,19.30
2023-05-23T00:50:46.803Z,11.93
2023-05-23T00:53:14.507Z,15.53
2023-05-23T00:55:42.992Z,16.63
2023-05-23T00:58:10.446Z,16.27
2023-05-23T01:00:38.736Z,14.57
2023-05-23T01:03:07.206Z,25.27
2023-05-23T01:05:34.927Z,14.90
2023-05-23T01:08:03.462Z,16.13
2023-05-23T01:10:30.994Z,14.77
2023-05-23T01:13:31.556Z,15.07
2023-05-23T01:16:19.173Z,13.57
2023-05-23T01:18:48.005Z,19.87
2023-05-23T01:21:19.177Z,16.13
2023-05-23T01:24:17.792Z,16.93
2023-05-23T01:27:14.271Z,14.10
2023-05-23T01:29:46.213Z,13.47
2023-05-23T01:32:15.249Z,14.73
2023-05-23T01:34:42.749Z,20.40
2023-05-23T01:37:18.835Z,17.30
2023-05-23T01:39:46.621Z,16.52
2023-05-23T01:42:14.312Z,17.93
2023-05-23T01:44:42.507Z,15.20
2023-05-23T01:47:10.572Z,16.07
2023-05-23T01:49:37.851Z,18.80
2023-05-23T01:52:09.848Z,15.83
2023-05-23T01:54:38.406Z,19.63
2023-05-23T01:57:06.472Z,17.60
2023-05-23T01:59:34.901Z,15.13
2023-05-23T02:02:02.964Z,15.37
2023-05-23T02:04:31.038Z,15.97
2023-05-23T02:06:58.798Z,18.60
2023-05-23T02:09:27.298Z,22.17
2023-05-23T02:11:55.583Z,18.33
2023-05-23T02:14:24.720Z,17.43
2023-05-23T02:16:53.077Z,16.67
2023-05-23T02:19:20.940Z,21.07
2023-05-23T02:21:48.769Z,16.00
2023-05-23T02:24:17.058Z,19.20
2023-05-23T02:26:45.333Z,17.53
2023-05-23T02:29:13.772Z,19.73
2023-05-23T02:31:41.862Z,18.77
2023-05-23T02:34:09.769Z,17.43
2023-05-23T02:36:37.523Z,18.00
2023-05-23T02:39:05.706Z,18.43
2023-05-23T02:41:33.885Z,16.70
2023-05-23T02:44:01.999Z,18.43
2023-05-23T02:46:29.826Z,16.97
2023-05-23T02:48:58.322Z,15.10
2023-05-23T02:51:26.716Z,15.63
2023-05-23T02:53:54.697Z,14.90
2023-05-23T02:56:22.754Z,14.30
2023-05-23T02:58:50.470Z,18.90
2023-05-23T03:01:18.205Z,14.43
2023-05-23T03:03:46.642Z,14.73
2023-05-23T03:06:14.747Z,15.43
2023-05-23T03:08:43.037Z,16.80
2023-05-23T03:11:11.104Z,16.50
2023-05-23T03:13:38.937Z,18.27
2023-05-23T03:16:07.675Z,17.33
2023-05-23T03:18:35.716Z,17.63
2023-05-23T03:21:03.679Z,17.30
2023-05-23T03:23:31.690Z,13.50
2023-05-23T03:25:59.901Z,16.73
2023-05-23T03:28:27.825Z,16.47
2023-05-23T03:30:56.126Z,15.67
2023-05-23T03:33:24.191Z,15.57
2023-05-23T03:35:53.064Z,17.43
2023-05-23T03:38:21.307Z,16.30
2023-05-23T03:40:49.250Z,19.23
2023-05-23T03:43:17.362Z,16.50
2023-05-23T03:45:45.248Z,17.53
2023-05-23T03:48:13.033Z,17.20
2023-05-23T03:50:40.780Z,18.10
2023-05-23T03:53:08.875Z,15.67
2023-05-23T03:55:37.047Z,19.97
2023-05-23T03:58:05.131Z,17.23
2023-05-23T04:00:33.338Z,21.60
2023-05-23T04:03:01.776Z,17.23
2023-05-23T04:05:29.788Z,13.53
2023-05-23T04:07:57.756Z,20.97
2023-05-23T04:10:25.259Z,18.70
2023-05-23T04:12:53.688Z,16.37
2023-05-23T04:15:21.686Z,16.60
2023-05-23T04:17:49.722Z,19.50
2023-05-23T04:20:17.968Z,20.97
2023-05-23T04:22:45.673Z,24.43
2023-05-23T04:25:13.958Z,19.50
2023-05-23T04:27:42.808Z,22.33
2023-05-23T04:30:13.267Z,17.63
2023-05-23T04:32:40.963Z,20.20
2023-05-23T04:35:13.618Z,20.47
2023-05-23T04:37:42.630Z,20.87
2023-05-23T04:40:13.642Z,20.00
2023-05-23T04:42:44.765Z,18.37
2023-05-23T04:45:12.989Z,24.23
2023-05-23T04:47:42.167Z,19.47
2023-05-23T04:50:12.309Z,19.87
2023-05-23T04:52:40.392Z,26.77
2023-05-23T04:55:10.362Z,20.53
2023-05-23T04:57:38.966Z,16.97
2023-05-23T05:00:10.484Z,28.17
2023-05-23T05:02:39.131Z,22.33
2023-05-23T05:05:08.568Z,20.93
2023-05-23T05:07:37.067Z,17.73
2023-05-23T05:10:05.346Z,16.77
2023-05-23T05:12:33.019Z,17.80
2023-05-23T05:15:00.513Z,26.47
2023-05-23T05:17:28.298Z,20.83
2023-05-23T05:19:56.468Z,17.50
2023-05-23T05:22:25.872Z,21.50
2023-05-23T05:24:53.936Z,18.80
2023-05-23T05:27:21.638Z,20.60
2023-05-23T05:29:50.143Z,23.50
2023-05-23T05:32:17.736Z,23.47
2023-05-23T05:34:49.136Z,25.07
2023-05-23T05:37:17.101Z,17.53
2023-05-23T05:39:44.689Z,16.90
2023-05-23T05:42:12.653Z,22.80
2023-05-23T05:44:40.870Z,26.07
2023-05-23T05:47:08.863Z,23.90
2023-05-23T05:49:36.805Z,19.07
2023-05-23T05:52:05.267Z,17.37
2023-05-23T05:54:33.365Z,19.53
2023-05-23T05:57:00.600Z,19.00
2023-05-23T05:59:28.691Z,18.10
2023-05-23T06:01:57.690Z,18.97
2023-05-23T06:04:25.711Z,19.07
2023-05-23T06:06:53.303Z,19.70
2023-05-23T06:09:21.826Z,19.50
2023-05-23T06:11:49.449Z,15.30
2023-05-23T06:14:17.484Z,15.57
2023-05-23T06:16:45.855Z,16.67
2023-05-23T06:19:13.526Z,16.07
2023-05-23T06:21:41.214Z,16.03
2023-05-23T06:24:08.967Z,18.43
2023-05-23T06:26:37.726Z,13.53
2023-05-23T06:29:06.002Z,27.80
2023-05-23T06:31:33.741Z,13.70
2023-05-23T06:34:02.728Z,17.40
2023-05-23T06:36:31.810Z,17.23
2023-05-23T06:38:59.916Z,18.57
2023-05-23T06:41:27.741Z,17.30
2023-05-23T06:43:55.322Z,14.90
2023-05-23T06:46:23.561Z,16.20
2023-05-23T06:48:59.510Z,13.77
2023-05-23T06:51:34.876Z,19.73
2023-05-23T06:54:03.143Z,16.80
2023-05-23T06:56:30.792Z,17.77
2023-05-23T06:58:58.583Z,17.37
2023-05-23T07:01:27.424Z,15.03
2023-05-23T07:03:55.208Z,15.10
2023-05-23T07:06:22.119Z,14.10
2023-05-23T07:08:50.186Z,12.93
2023-05-23T07:11:18.183Z,16.75
2023-05-23T07:13:46.449Z,17.30
2023-05-23T07:16:14.058Z,14.68
2023-05-23T07:18:42.021Z,20.80
2023-05-23T07:21:10.062Z,15.70
2023-05-23T07:23:38.174Z,16.97
2023-05-23T07:26:06.166Z,14.37
2023-05-23T07:28:33.771Z,19.27
2023-05-23T07:31:01.514Z,17.08
2023-05-23T07:33:33.214Z,18.15
2023-05-23T07:36:00.952Z,14.07
2023-05-23T07:38:28.560Z,11.68
2023-05-23T07:41:09.820Z,14.82
2023-05-23T07:43:38.454Z,14.85
2023-05-23T07:46:07.166Z,15.30
2023-05-23T07:48:35.470Z,13.73
2023-05-23T07:51:03.613Z,12.82
2023-05-23T07:53:31.498Z,14.43
2023-05-23T07:55:59.134Z,13.57
2023-05-23T07:58:27.215Z,13.57
2023-05-23T08:00:55.323Z,13.93
2023-05-23T08:03:23.336Z,12.85
2023-05-23T08:05:51.474Z,14.52
2023-05-23T08:08:19.483Z,15.45
2023-05-23T08:10:47.440Z,18.40
2023-05-23T08:13:15.667Z,17.60
2023-05-23T08:15:44.287Z,14.23
2023-05-23T08:18:13.533Z,15.10
2023-05-23T08:20:42.244Z,13.77
2023-05-23T08:23:10.072Z,11.63
2023-05-23T08:25:38.019Z,20.17
2023-05-23T08:28:06.256Z,13.48
2023-05-23T08:30:34.797Z,16.35
2023-05-23T08:33:05.042Z,15.57
2023-05-23T08:35:38.313Z,15.75
2023-05-23T08:38:10.642Z,17.30
2023-05-23T08:40:38.319Z,16.05
2023-05-23T08:43:06.052Z,21.20
2023-05-23T08:45:34.553Z,17.67
2023-05-23T08:48:02.250Z,18.58
2023-05-23T08:50:30.649Z,24.00
2023-05-23T08:52:59.966Z,18.73
2023-05-23T08:55:28.856Z,22.33
2023-05-23T08:58:00.476Z,18.67
2023-05-23T09:00:28.143Z,16.73
2023-05-23T09:02:56.142Z,15.32
2023-05-23T09:05:23.922Z,16.35
2023-05-23T09:07:54.003Z,15.55
2023-05-23T09:10:22.061Z,17.77
2023-05-23T09:12:53.609Z,18.70
2023-05-23T09:15:22.487Z,17.63
2023-05-23T09:17:50.662Z,17.90
2023-05-23T09:20:18.786Z,15.25
2023-05-23T09:23:07.739Z,13.55
2023-05-23T09:25:38.927Z,14.85
2023-05-23T09:28:07.167Z,15.45
2023-05-23T09:30:35.475Z,13.25
2023-05-23T09:33:05.420Z,18.23
2023-05-23T09:35:33.707Z,16.73
2023-05-23T09:38:01.766Z,13.15
2023-05-23T09:40:33.283Z,17.20
2023-05-23T09:43:04.517Z,10.30
2023-05-23T09:45:32.624Z,13.32
2023-05-23T09:48:02.304Z,15.93
2023-05-23T09:50:34.413Z,18.52
2023-05-23T09:53:02.753Z,13.80
2023-05-23T09:55:30.710Z,15.27
2023-05-23T09:57:58.710Z,11.00
2023-05-23T10:00:26.636Z,15.18
2023-05-23T10:03:15.257Z,13.63
2023-05-23T10:05:46.140Z,19.77
2023-05-23T10:08:29.877Z,13.68
2023-05-23T10:10:57.302Z,13.82
2023-05-23T10:13:28.568Z,14.20
2023-05-23T10:16:25.064Z,13.70
2023-05-23T10:19:27.280Z,16.33
2023-05-23T10:22:01.717Z,10.57
2023-05-23T10:24:30.123Z,11.18
2023-05-23T10:26:58.182Z,18.38
2023-05-23T10:29:26.563Z,14.93
2023-05-23T10:31:53.658Z,15.32
2023-05-23T10:34:45.187Z,11.95
2023-05-23T10:37:30.499Z,11.85
2023-05-23T10:40:14.197Z,8.63
2023-05-23T10:42:46.357Z,10.90
2023-05-23T10:45:21.706Z,8.20
2023-05-23T10:47:49.713Z,10.73
2023-05-23T10:50:32.098Z,10.75
2023-05-23T10:53:02.083Z,12.73
2023-05-23T10:55:33.189Z,13.38
2023-05-23T10:58:23.116Z,10.90
2023-05-23T11:01:06.147Z,11.30
2023-05-23T11:03:49.905Z,8.02
2023-05-23T11:06:38.749Z,11.30
2023-05-23T11:09:13.998Z,9.30
2023-05-23T11:11:53.586Z,6.65
2023-05-23T11:14:43.767Z,11.23
2023-05-23T11:17:13.237Z,13.60
2023-05-23T11:19:41.708Z,6.03
2023-05-23T11:22:09.740Z,10.05
2023-05-23T11:24:55.182Z,7.47
2023-05-23T11:27:40.291Z,8.00
2023-05-23T11:30:10.085Z,6.32
2023-05-23T11:32:38.569Z,6.07
2023-05-23T11:35:09.043Z,6.82
2023-05-23T11:37:36.679Z,6.72
2023-05-23T11:40:26.297Z,7.25
2023-05-23T11:42:57.546Z,6.63
2023-05-23T11:45:25.033Z,6.70
2023-05-23T11:47:52.897Z,7.25
2023-05-23T11:50:24.502Z,6.95
2023-05-23T11:52:52.810Z,8.27
2023-05-23T11:55:21.416Z,9.63
2023-05-23T11:57:49.026Z,8.63
2023-05-23T12:00:19.282Z,4.90
2023-05-23T12:02:48.012Z,8.27
2023-05-23T12:05:16.078Z,8.52
2023-05-23T12:07:47.668Z,5.47
2023-05-23T12:10:16.374Z,9.30
2023-05-23T12:12:43.354Z,6.65
2023-05-23T12:15:12.765Z,7.68
2023-05-23T12:17:41.474Z,6.70
2023-05-23T12:20:10.244Z,8.85
2023-05-23T12:22:38.533Z,8.15
2023-05-23T12:25:09.225Z,4.82
2023-05-23T12:27:37.607Z,6.70
2023-05-23T12:30:12.282Z,7.00
2023-05-23T12:32:43.517Z,6.22
2023-05-23T12:35:34.484Z,5.70
2023-05-23T12:38:01.919Z,5.38
2023-05-23T12:40:30.014Z,7.32
2023-05-23T12:42:58.324Z,7.32
2023-05-23T12:45:55.413Z,5.93
2023-05-23T12:48:23.643Z,6.00
2023-05-23T12:50:51.525Z,9.82
2023-05-23T12:53:19.377Z,5.72
2023-05-23T12:55:47.429Z,7.20
2023-05-23T12:58:15.632Z,5.80
2023-05-23T13:00:43.960Z,9.93
2023-05-23T13:03:12.201Z,12.80
2023-05-23T13:05:40.361Z,10.45
2023-05-23T13:08:08.522Z,7.93
2023-05-23T13:10:36.595Z,10.02
2023-05-23T13:13:04.770Z,14.63
2023-05-23T13:15:32.645Z,6.63
2023-05-23T13:18:00.986Z,7.72
2023-05-23T13:20:30.454Z,7.43
2023-05-23T13:23:01.912Z,10.30
2023-05-23T13:25:28.655Z,8.13
2023-05-23T13:27:56.873Z,7.72
2023-05-23T13:30:24.912Z,6.15
2023-05-23T13:32:53.043Z,9.35
2023-05-23T13:35:20.965Z,7.55
2023-05-23T13:37:49.051Z,10.18
2023-05-23T13:40:20.573Z,7.05
2023-05-23T13:42:49.896Z,8.60
2023-05-23T13:45:18.688Z,6.82
2023-05-23T13:47:47.532Z,5.63
2023-05-23T13:50:14.752Z,7.95
2023-05-23T13:52:45.654Z,6.88
2023-05-23T13:55:15.697Z,7.75
2023-05-23T13:57:43.670Z,7.68
2023-05-23T14:00:14.606Z,6.93
2023-05-23T14:02:42.905Z,8.52
2023-05-23T14:05:11.544Z,8.57
2023-05-23T14:07:39.296Z,6.75
2023-05-23T14:10:09.739Z,7.18
2023-05-23T14:12:37.885Z,11.13
2023-05-23T14:15:08.023Z,10.90
2023-05-23T14:17:36.068Z,5.85
2023-05-23T14:20:04.712Z,8.35
2023-05-23T14:22:32.790Z,6.70
2023-05-23T14:25:00.036Z,7.88
2023-05-23T14:27:28.451Z,7.55
2023-05-23T14:29:56.075Z,13.55
2023-05-23T14:32:23.828Z,5.13
2023-05-23T14:34:51.669Z,6.53
2023-05-23T14:37:19.879Z,6.05
2023-05-23T14:39:47.691Z,5.82
2023-05-23T14:42:15.596Z,5.13
2023-05-23T14:44:43.690Z,9.20
2023-05-23T14:47:11.725Z,5.72
2023-05-23T14:49:39.907Z,8.70
2023-05-23T14:52:07.931Z,8.35
2023-05-23T14:54:35.995Z,6.63
2023-05-23T14:57:04.146Z,6.95
2023-05-23T14:59:32.669Z,5.55
2023-05-23T15:02:00.654Z,6.65
2023-05-23T15:04:28.518Z,6.05
2023-05-23T15:06:56.218Z,6.90
2023-05-23T15:09:24.176Z,10.68
2023-05-23T15:11:52.395Z,6.28
2023-05-23T15:14:20.033Z,6.30
2023-05-23T15:16:48.904Z,7.85
2023-05-23T15:19:17.295Z,5.60
2023-05-23T15:21:51.001Z,6.45
2023-05-23T15:26:47.530Z,5.88
2023-05-23T15:29:18.258Z,7.68
2023-05-23T15:31:46.213Z,5.90
2023-05-23T15:34:13.882Z,9.85
2023-05-23T15:36:41.975Z,6.20
2023-05-23T15:39:10.337Z,5.25
2023-05-23T15:41:38.380Z,6.85
2023-05-23T15:44:06.353Z,5.68
2023-05-23T15:46:34.553Z,5.20
2023-05-23T15:49:10.564Z,4.80
2023-05-23T15:51:49.999Z,4.30
2023-05-23T15:54:18.069Z,4.82
2023-05-23T15:56:45.810Z,5.63
2023-05-23T15:59:13.792Z,5.97
2023-05-23T16:01:41.975Z,9.30
2023-05-23T16:04:10.222Z,6.78
2023-05-23T16:06:39.071Z,6.70
2023-05-23T16:09:06.983Z,5.90
2023-05-23T16:11:35.224Z,6.50
2023-05-23T16:14:03.254Z,7.80
2023-05-23T16:16:31.316Z,10.75
2023-05-23T16:18:59.361Z,7.25
2023-05-23T16:21:27.504Z,9.98
2023-05-23T16:23:56.259Z,8.00
2023-05-23T16:26:23.871Z,5.40
2023-05-23T16:28:51.732Z,6.20
2023-05-23T16:31:19.342Z,6.65
2023-05-23T16:33:47.429Z,6.65
2023-05-23T16:36:15.565Z,5.93
2023-05-23T16:38:43.382Z,5.45
2023-05-23T16:41:11.175Z,8.57
2023-05-23T16:43:39.295Z,6.90
2023-05-23T16:46:07.633Z,5.60
2023-05-23T16:48:35.806Z,5.03
2023-05-23T16:51:03.919Z,7.32
2023-05-23T16:53:31.878Z,10.50
2023-05-23T16:56:00.122Z,7.25
2023-05-23T16:58:27.720Z,7.13
2023-05-23T17:00:56.271Z,6.47
2023-05-23T17:03:24.431Z,5.78
2023-05-23T17:05:52.401Z,7.20
2023-05-23T17:08:20.376Z,7.28
2023-05-23T17:10:48.500Z,7.53
2023-05-23T17:13:16.273Z,6.13
2023-05-23T17:15:45.027Z,6.38
2023-05-23T17:18:12.844Z,12.80
2023-05-23T17:20:41.192Z,9.52
2023-05-23T17:23:10.955Z,8.30
2023-05-23T17:25:39.993Z,6.28
2023-05-23T17:28:08.324Z,10.73
2023-05-23T17:30:36.410Z,7.90
2023-05-23T17:33:05.005Z,9.23
2023-05-23T17:35:33.036Z,7.78
2023-05-23T17:38:02.543Z,9.57
2023-05-23T17:40:30.185Z,5.60
2023-05-23T17:42:58.230Z,7.72
2023-05-23T17:45:26.336Z,7.72
2023-05-23T17:47:53.919Z,7.00
2023-05-23T17:50:22.908Z,6.05
2023-05-23T17:52:50.796Z,12.73
2023-05-23T17:55:18.612Z,8.43
2023-05-23T17:57:46.575Z,8.38
2023-05-23T18:00:16.396Z,11.75
2023-05-23T18:02:44.846Z,16.20
2023-05-23T18:05:12.776Z,14.52
2023-05-23T18:07:41.196Z,12.13
2023-05-23T18:10:11.770Z,15.32
2023-05-23T18:12:39.813Z,15.32
2023-05-23T18:15:10.305Z,19.55
2023-05-23T18:17:38.009Z,15.05
2023-05-23T18:20:08.653Z,13.65
2023-05-23T18:22:36.415Z,9.65
2023-05-23T18:25:04.453Z,9.30
2023-05-23T18:27:32.543Z,11.07
2023-05-23T18:30:00.532Z,11.63
2023-05-23T18:32:28.540Z,11.18
2023-05-23T18:34:56.690Z,12.27
2023-05-23T18:37:24.434Z,11.35
2023-05-23T18:39:52.519Z,18.10
2023-05-23T18:42:20.287Z,6.07
2023-05-23T18:44:47.988Z,11.55
2023-05-23T18:47:15.547Z,9.65
2023-05-23T18:49:43.596Z,10.40
2023-05-23T18:52:11.153Z,10.18
2023-05-23T18:54:39.263Z,14.23
2023-05-23T18:57:07.405Z,10.32
2023-05-23T18:59:35.437Z,11.60
2023-05-23T19:02:03.641Z,8.90
2023-05-23T19:04:31.347Z,9.80
2023-05-23T19:07:00.048Z,7.68
2023-05-23T19:09:28.225Z,13.45
2023-05-23T19:11:56.057Z,12.02
2023-05-23T19:14:24.665Z,10.23
2023-05-23T19:16:55.271Z,11.77
2023-05-23T19:19:26.831Z,8.35
2023-05-23T19:22:00.890Z,10.85
2023-05-23T19:24:32.187Z,9.43
2023-05-23T19:27:05.364Z,8.35
2023-05-23T19:29:33.528Z,8.18
2023-05-23T19:32:01.370Z,11.18
2023-05-23T19:34:29.269Z,7.75
2023-05-23T19:36:58.531Z,8.68
2023-05-23T19:39:26.495Z,11.50
2023-05-23T19:41:54.638Z,6.63
2023-05-23T19:44:23.345Z,8.23
2023-05-23T19:46:51.644Z,6.68
2023-05-23T19:49:20.209Z,15.20
2023-05-23T19:51:49.686Z,9.43
2023-05-23T19:54:20.178Z,11.77
2023-05-23T19:56:48.051Z,10.80
2023-05-23T19:59:15.980Z,9.67
2023-05-23T20:01:44.177Z,10.07
2023-05-23T20:04:14.221Z,8.90
2023-05-23T20:06:44.277Z,12.03
2023-05-23T20:09:17.786Z,11.33
2023-05-23T20:11:45.596Z,9.70
2023-05-23T20:14:17.586Z,10.90
2023-05-23T20:16:49.813Z,11.43
2023-05-23T20:19:17.702Z,9.33
2023-05-23T20:21:49.723Z,13.13
2023-05-23T20:24:19.168Z,11.43
2023-05-23T20:26:46.792Z,9.23
2023-05-23T20:29:14.700Z,8.33
2023-05-23T20:31:44.502Z,12.60
2023-05-23T20:34:16.025Z,9.67
2023-05-23T20:36:44.191Z,10.93
2023-05-23T20:39:11.822Z,13.97
2023-05-23T20:41:42.843Z,11.93
2023-05-23T20:44:14.110Z,9.17
2023-05-23T20:46:42.602Z,9.07
2023-05-23T20:49:11.238Z,13.63
2023-05-23T20:51:39.067Z,11.03
2023-05-23T20:54:07.674Z,19.03
2023-05-23T20:56:35.576Z,13.53
2023-05-23T20:59:04.554Z,13.33
2023-05-23T21:01:33.386Z,13.80
2023-05-23T21:04:01.251Z,13.80
2023-05-23T21:06:29.129Z,13.43
2023-05-23T21:08:57.272Z,11.67
2023-05-23T21:11:25.299Z,11.53
2023-05-23T21:13:53.414Z,7.60
2023-05-23T21:16:21.449Z,8.60
2023-05-23T21:18:49.231Z,11.17
2023-05-23T21:21:16.936Z,12.90
2023-05-23T21:23:44.478Z,8.40
2023-05-23T21:26:12.964Z,7.70
2023-05-23T21:28:40.540Z,7.60
2023-05-23T21:31:08.526Z,9.63
2023-05-23T21:33:36.611Z,8.73
2023-05-23T21:36:04.894Z,9.57
2023-05-23T21:38:32.766Z,11.07
2023-05-23T21:41:00.652Z,10.33
2023-05-23T21:43:28.726Z,8.53
2023-05-23T21:45:56.819Z,10.47
2023-05-23T21:51:00.152Z,9.97
2023-05-23T21:53:28.516Z,7.60
2023-05-23T21:55:57.125Z,9.83
2023-05-23T21:58:25.439Z,7.40
2023-05-23T22:00:53.487Z,6.17
2023-05-23T22:03:21.698Z,11.33
2023-05-23T22:05:49.806Z,8.47
2023-05-23T22:08:17.994Z,9.53
2023-05-23T22:10:46.199Z,6.20
2023-05-23T22:13:14.150Z,8.57
2023-05-23T22:15:42.275Z,8.27
2023-05-23T22:18:10.221Z,8.77
2023-05-23T22:20:39.241Z,6.67
2023-05-23T22:23:07.881Z,11.10
2023-05-23T22:25:38.607Z,7.67
2023-05-23T22:28:06.305Z,6.37
2023-05-23T22:30:34.377Z,6.90
2023-05-23T22:33:02.506Z,6.23
2023-05-23T22:35:30.520Z,7.70
2023-05-23T22:37:59.056Z,8.73
2023-05-23T22:40:27.211Z,9.53
2023-05-23T22:42:54.895Z,8.50
2023-05-23T22:45:22.972Z,7.57
2023-05-23T22:47:54.126Z,10.47
2023-05-23T22:50:22.750Z,8.60
2023-05-23T22:52:50.734Z,8.27
2023-05-23T22:55:18.823Z,7.07
2023-05-23T22:57:47.205Z,6.50
2023-05-23T23:00:16.280Z,9.73
2023-05-23T23:02:44.634Z,8.53
2023-05-23T23:05:12.327Z,7.80
2023-05-23T23:07:40.424Z,4.90
2023-05-23T23:10:10.255Z,8.50
2023-05-23T23:12:38.047Z,5.20
2023-05-23T23:15:07.598Z,6.73
2023-05-23T23:17:35.217Z,6.50
2023-05-23T23:20:04.364Z,5.57
2023-05-23T23:22:32.607Z,5.87
2023-05-23T23:25:02.178Z,6.73
2023-05-23T23:27:31.797Z,7.13
2023-05-23T23:29:59.769Z,8.70
2023-05-23T23:32:27.495Z,8.53
2023-05-23T23:34:55.168Z,7.03
2023-05-23T23:37:24.625Z,8.40
2023-05-23T23:39:52.640Z,12.43
2023-05-23T23:42:20.510Z,12.83
2023-05-23T23:44:48.324Z,10.10
2023-05-23T23:47:16.248Z,7.73
2023-05-23T23:49:44.250Z,6.03
2023-05-23T23:52:12.863Z,6.03
2023-05-23T23:54:40.474Z,8.07
2023-05-23T23:57:13.743Z,6.93
2023-05-23T23:59:41.765Z,6.70
